createdAt,value
2023-01-10T00:00:11.732Z,32.90
2023-01-10T00:02:59.047Z,33.70
2023-01-10T00:05:26.397Z,34.20
2023-01-10T00:07:53.380Z,35.10
2023-01-10T00:10:20.827Z,33.00
2023-01-10T00:13:05.318Z,33.90
2023-01-10T00:15:35.764Z,33.10
2023-01-10T00:18:02.979Z,34.80
2023-01-10T00:20:30.140Z,35.40
2023-01-10T00:22:57.257Z,36.10
2023-01-10T00:25:24.286Z,35.50
2023-01-10T00:28:01.993Z,35.10
2023-01-10T00:30:28.988Z,35.90
2023-01-10T00:32:57.178Z,35.70
2023-01-10T00:35:24.275Z,35.00
2023-01-10T00:37:52.209Z,35.50
2023-01-10T00:40:19.604Z,35.10
2023-01-10T00:43:04.756Z,34.10
2023-01-10T00:45:31.731Z,34.00
2023-01-10T00:47:58.698Z,33.70
2023-01-10T00:50:25.804Z,32.90
2023-01-10T00:52:53.057Z,34.70
2023-01-10T00:55:20.155Z,34.40
2023-01-10T00:57:47.495Z,33.80
2023-01-10T01:00:16.303Z,35.10
2023-01-10T01:02:43.237Z,34.90
2023-01-10T01:05:11.545Z,35.70
2023-01-10T01:07:38.747Z,35.10
2023-01-10T01:10:24.427Z,35.50
2023-01-10T01:12:51.702Z,34.90
2023-01-10T01:15:18.899Z,36.10
2023-01-10T01:17:45.934Z,37.70
2023-01-10T01:20:14.954Z,36.20
2023-01-10T01:22:42.563Z,36.20
2023-01-10T01:25:10.712Z,37.10
2023-01-10T01:27:38.398Z,36.80
2023-01-10T01:30:06.228Z,37.40
2023-01-10T01:32:33.233Z,36.40
2023-01-10T01:35:00.614Z,37.70
2023-01-10T01:37:27.679Z,36.90
2023-01-10T01:39:54.649Z,36.60
2023-01-10T01:42:27.533Z,38.90
2023-01-10T01:45:32.537Z,37.80
2023-01-10T01:48:03.894Z,37.80
2023-01-10T01:50:37.210Z,39.00
2023-01-10T01:53:09.265Z,37.60
2023-01-10T01:55:38.175Z,38.40
2023-01-10T01:58:10.736Z,39.10
2023-01-10T02:00:37.802Z,39.80
2023-01-10T02:03:06.884Z,40.10
2023-01-10T02:05:36.203Z,40.50
2023-01-10T02:08:04.030Z,39.70
2023-01-10T02:10:38.875Z,40.50
2023-01-10T02:13:09.418Z,38.80
2023-01-10T02:15:37.236Z,39.20
2023-01-10T02:18:05.357Z,39.60
2023-01-10T02:20:38.727Z,41.10
2023-01-10T02:23:31.982Z,39.10
2023-01-10T02:26:41.315Z,39.20
2023-01-10T02:29:36.855Z,40.80
2023-01-10T02:32:35.538Z,40.80
2023-01-10T02:35:18.565Z,40.20
2023-01-10T02:37:58.937Z,39.60
2023-01-10T02:40:32.909Z,40.90
2023-01-10T02:43:07.661Z,40.20
2023-01-10T02:45:39.725Z,39.80
2023-01-10T02:48:07.260Z,40.30
2023-01-10T02:50:51.822Z,39.40
2023-01-10T02:53:24.155Z,40.00
2023-01-10T02:56:13.927Z,38.70
2023-01-10T02:59:01.929Z,41.40
2023-01-10T03:01:38.573Z,39.60
2023-01-10T03:04:18.768Z,39.70
2023-01-10T03:06:54.098Z,39.20
2023-01-10T03:09:33.535Z,38.70
2023-01-10T03:12:09.671Z,38.50
2023-01-10T03:14:38.530Z,39.80
2023-01-10T03:17:08.964Z,38.60
2023-01-10T03:19:42.317Z,38.40
2023-01-10T03:22:12.517Z,37.00
2023-01-10T03:24:43.677Z,38.60
2023-01-10T03:27:16.329Z,38.00
2023-01-10T03:29:49.936Z,37.40
2023-01-10T03:32:22.115Z,38.40
2023-01-10T03:34:49.472Z,37.80
2023-01-10T03:37:25.196Z,39.00
2023-01-10T03:40:01.425Z,36.20
2023-01-10T03:42:56.924Z,35.90
2023-01-10T03:45:30.971Z,38.60
2023-01-10T03:48:03.091Z,39.20
2023-01-10T03:50:31.620Z,39.00
2023-01-10T03:52:59.859Z,38.90
2023-01-10T03:55:30.070Z,39.00
2023-01-10T03:57:57.270Z,39.10
2023-01-10T04:00:26.315Z,38.90
2023-01-10T04:02:53.414Z,40.20
2023-01-10T04:05:20.620Z,39.10
2023-01-10T04:07:49.238Z,39.20
2023-01-10T04:10:17.220Z,39.50
2023-01-10T04:12:44.230Z,39.80
2023-01-10T04:15:12.387Z,41.10
2023-01-10T04:17:39.409Z,39.50
2023-01-10T04:20:07.590Z,38.30
2023-01-10T04:22:34.831Z,38.70
2023-01-10T04:25:02.071Z,38.10
2023-01-10T04:27:29.125Z,37.20
2023-01-10T04:29:56.836Z,39.20
2023-01-10T04:32:24.026Z,38.80
2023-01-10T04:34:51.343Z,38.00
2023-01-10T04:37:18.533Z,38.60
2023-01-10T04:39:45.552Z,39.40
2023-01-10T04:42:12.695Z,37.70
2023-01-10T04:44:39.664Z,37.00
2023-01-10T04:47:06.789Z,36.50
2023-01-10T04:49:33.832Z,37.10
2023-01-10T04:52:01.631Z,37.60
2023-01-10T04:54:28.985Z,39.10
2023-01-10T04:56:56.003Z,38.00
2023-01-10T04:59:23.276Z,37.30
2023-01-10T05:01:50.426Z,36.10
2023-01-10T05:04:20.124Z,37.90
2023-01-10T05:06:49.501Z,34.90
2023-01-10T05:09:16.617Z,35.40
2023-01-10T05:11:43.598Z,34.90
2023-01-10T05:14:10.643Z,36.80
2023-01-10T05:16:37.844Z,37.90
2023-01-10T05:19:05.262Z,36.00
2023-01-10T05:21:32.378Z,36.30
2023-01-10T05:23:59.625Z,38.80
2023-01-10T05:26:26.578Z,37.40
2023-01-10T05:28:53.900Z,38.50
2023-01-10T05:31:22.146Z,38.00
2023-01-10T05:33:50.712Z,37.10
2023-01-10T05:36:18.460Z,36.50
2023-01-10T05:38:46.000Z,36.70
2023-01-10T05:41:13.017Z,38.20
2023-01-10T05:43:40.117Z,38.70
2023-01-10T05:46:07.581Z,38.10
2023-01-10T05:48:34.688Z,38.50
2023-01-10T05:51:01.650Z,37.30
2023-01-10T05:53:29.465Z,36.10
2023-01-10T05:55:58.576Z,37.40
2023-01-10T05:58:26.744Z,38.80
2023-01-10T06:00:54.482Z,39.10
2023-01-10T06:03:21.617Z,38.20
2023-01-10T06:05:49.186Z,38.70
2023-01-10T06:08:16.377Z,37.10
2023-01-10T06:10:43.657Z,38.40
2023-01-10T06:13:12.253Z,37.80
2023-01-10T06:15:40.506Z,36.60
2023-01-10T06:18:09.460Z,38.00
2023-01-10T06:20:37.638Z,37.40
2023-01-10T06:23:04.939Z,36.40
2023-01-10T06:25:32.034Z,38.70
2023-01-10T06:27:59.080Z,37.90
2023-01-10T06:30:26.347Z,37.60
2023-01-10T06:32:53.307Z,38.00
2023-01-10T06:35:20.661Z,36.40
2023-01-10T06:37:47.731Z,37.00
2023-01-10T06:40:15.452Z,38.00
2023-01-10T06:42:43.133Z,37.20
2023-01-10T06:45:12.409Z,37.20
2023-01-10T06:47:39.712Z,36.40
2023-01-10T06:50:08.412Z,36.40
2023-01-10T06:52:35.752Z,37.30
2023-01-10T06:55:02.857Z,36.40
2023-01-10T06:57:30.059Z,35.80
2023-01-10T06:59:57.266Z,36.60
2023-01-10T07:02:24.419Z,36.50
2023-01-10T07:04:52.299Z,35.90
2023-01-10T07:07:19.334Z,35.60
2023-01-10T07:09:46.426Z,35.40
2023-01-10T07:12:13.423Z,35.70
2023-01-10T07:14:40.526Z,34.60
2023-01-10T07:17:08.077Z,33.90
2023-01-10T07:19:35.212Z,34.00
2023-01-10T07:22:05.194Z,34.50
2023-01-10T07:24:32.579Z,33.80
2023-01-10T07:26:59.688Z,34.50
2023-01-10T07:29:26.940Z,33.80
2023-01-10T07:31:54.607Z,33.70
2023-01-10T07:34:21.807Z,34.20
2023-01-10T07:36:48.968Z,33.90
2023-01-10T07:39:16.118Z,32.40
2023-01-10T07:41:43.443Z,33.00
2023-01-10T07:44:16.220Z,32.30
2023-01-10T07:46:43.190Z,33.10
2023-01-10T07:49:10.209Z,31.60
2023-01-10T07:51:37.395Z,31.80
2023-01-10T07:54:04.488Z,32.10
2023-01-10T07:56:31.934Z,29.60
2023-01-10T07:58:59.235Z,30.90
2023-01-10T08:01:26.544Z,30.20
2023-01-10T08:03:53.540Z,31.50
2023-01-10T08:06:20.917Z,29.10
2023-01-10T08:08:47.930Z,29.30
2023-01-10T08:11:14.971Z,28.20
2023-01-10T08:13:42.149Z,28.80
2023-01-10T08:16:10.839Z,29.40
2023-01-10T08:18:39.171Z,29.50
2023-01-10T08:21:06.698Z,29.30
2023-01-10T08:23:33.753Z,29.90
2023-01-10T08:26:02.799Z,29.00
2023-01-10T08:28:30.220Z,29.40
2023-01-10T08:30:57.783Z,29.30
2023-01-10T08:33:25.798Z,29.80
2023-01-10T08:35:53.402Z,29.10
2023-01-10T08:38:20.634Z,29.20
2023-01-10T08:40:47.983Z,29.80
2023-01-10T08:43:16.282Z,27.20
2023-01-10T08:45:43.699Z,29.30
2023-01-10T08:48:11.450Z,28.10
2023-01-10T08:50:38.817Z,28.10
2023-01-10T08:53:06.182Z,27.80
2023-01-10T08:55:35.961Z,27.00
2023-01-10T08:58:03.639Z,26.90
2023-01-10T09:00:31.460Z,28.70
2023-01-10T09:02:58.711Z,27.50
2023-01-10T09:05:28.195Z,26.40
2023-01-10T09:07:59.703Z,27.20
2023-01-10T09:10:27.546Z,27.20
2023-01-10T09:12:59.373Z,28.00
2023-01-10T09:15:28.222Z,27.10
2023-01-10T09:17:58.060Z,27.30
2023-01-10T09:20:27.237Z,27.60
2023-01-10T09:22:57.021Z,27.30
2023-01-10T09:25:25.065Z,25.90
2023-01-10T09:27:59.212Z,27.40
2023-01-10T09:30:26.720Z,26.60
2023-01-10T09:32:55.415Z,26.60
2023-01-10T09:35:22.618Z,26.20
2023-01-10T09:37:50.179Z,26.30
2023-01-10T09:40:20.843Z,26.50
2023-01-10T09:43:07.407Z,25.80
2023-01-10T09:45:47.076Z,26.70
2023-01-10T09:48:22.118Z,25.70
2023-01-10T09:51:06.086Z,25.70
2023-01-10T09:53:41.813Z,26.00
2023-01-10T09:56:10.993Z,26.30
2023-01-10T09:58:40.078Z,26.80
2023-01-10T10:01:12.007Z,27.00
2023-01-10T10:03:47.095Z,26.00
2023-01-10T10:06:16.029Z,25.60
2023-01-10T10:08:45.188Z,26.20
2023-01-10T10:11:35.007Z,26.20
2023-01-10T10:14:08.780Z,25.90
2023-01-10T10:16:44.284Z,26.20
2023-01-10T10:19:21.469Z,25.70
2023-01-10T10:21:58.609Z,25.10
2023-01-10T10:24:48.915Z,27.00
2023-01-10T10:27:25.115Z,25.50
2023-01-10T10:30:17.811Z,26.40
2023-01-10T10:33:08.198Z,26.60
2023-01-10T10:35:39.829Z,27.20
2023-01-10T10:38:12.610Z,26.00
2023-01-10T10:40:43.537Z,26.70
2023-01-10T10:43:21.393Z,27.40
2023-01-10T10:45:51.981Z,25.60
2023-01-10T10:48:25.091Z,24.80
2023-01-10T10:50:59.692Z,25.40
2023-01-10T10:53:27.166Z,28.00
2023-01-10T10:55:55.786Z,25.60
2023-01-10T10:58:23.001Z,27.00
2023-01-10T11:00:50.978Z,26.90
2023-01-10T11:03:37.062Z,25.80
2023-01-10T11:06:06.642Z,24.80
2023-01-10T11:08:37.163Z,25.70
2023-01-10T11:11:08.247Z,28.10
2023-01-10T11:13:47.180Z,27.50
2023-01-10T11:16:27.898Z,26.30
2023-01-10T11:19:16.625Z,26.40
2023-01-10T11:21:47.156Z,26.40
2023-01-10T11:24:25.016Z,25.30
2023-01-10T11:26:53.834Z,26.30
2023-01-10T11:29:25.500Z,25.70
2023-01-10T11:31:55.250Z,25.30
2023-01-10T11:34:27.522Z,25.30
2023-01-10T11:37:00.589Z,26.70
2023-01-10T11:39:29.019Z,26.40
2023-01-10T11:41:58.326Z,27.70
2023-01-10T11:44:27.812Z,25.80
2023-01-10T11:46:58.465Z,27.10
2023-01-10T11:49:32.432Z,26.40
2023-01-10T11:52:05.356Z,26.60
2023-01-10T11:54:34.748Z,26.20
2023-01-10T11:57:05.277Z,26.20
2023-01-10T11:59:34.112Z,25.50
2023-01-10T12:02:05.765Z,25.30
2023-01-10T12:04:40.675Z,24.40
2023-01-10T12:07:12.965Z,24.60
2023-01-10T12:09:43.903Z,25.30
2023-01-10T12:12:25.590Z,25.30
2023-01-10T12:14:54.269Z,24.70
2023-01-10T12:17:27.447Z,24.60
2023-01-10T12:20:00.460Z,24.80
2023-01-10T12:22:34.898Z,26.30
2023-01-10T12:25:04.904Z,25.20
2023-01-10T12:27:32.323Z,25.40
2023-01-10T12:30:06.462Z,26.00
2023-01-10T12:32:39.414Z,26.30
2023-01-10T12:35:13.178Z,25.30
2023-01-10T12:37:47.674Z,25.90
2023-01-10T12:40:20.526Z,24.80
2023-01-10T12:43:14.340Z,25.10
2023-01-10T12:45:48.059Z,26.60
2023-01-10T12:48:23.793Z,27.30
2023-01-10T12:50:59.164Z,25.80
2023-01-10T12:53:33.141Z,26.00
2023-01-10T12:56:04.435Z,25.50
2023-01-10T12:58:38.806Z,24.40
2023-01-10T13:01:08.093Z,26.30
2023-01-10T13:03:36.951Z,26.10
2023-01-10T13:06:04.562Z,25.20
2023-01-10T13:08:36.107Z,25.80
2023-01-10T13:11:04.519Z,25.90
2023-01-10T13:13:36.446Z,24.70
2023-01-10T13:16:18.441Z,25.90
2023-01-10T13:19:03.380Z,26.30
2023-01-10T13:21:31.221Z,24.70
2023-01-10T13:24:02.467Z,25.00
2023-01-10T13:26:46.787Z,25.80
2023-01-10T13:29:18.943Z,25.90
2023-01-10T13:31:49.868Z,26.00
2023-01-10T13:34:20.267Z,26.60
2023-01-10T13:36:56.749Z,27.00
2023-01-10T13:42:31.988Z,24.00
2023-01-10T13:45:21.641Z,25.90
2023-01-10T13:48:05.991Z,25.20
2023-01-10T13:51:06.567Z,25.20
2023-01-10T13:53:58.185Z,26.40
2023-01-10T13:56:47.980Z,25.20
2023-01-10T13:59:54.556Z,26.00
2023-01-10T14:02:32.035Z,21.40
2023-01-10T14:05:01.602Z,23.00
2023-01-10T14:07:32.966Z,22.10
2023-01-10T14:10:06.797Z,22.20
2023-01-10T14:12:39.750Z,20.70
2023-01-10T14:15:22.846Z,21.80
2023-01-10T14:18:00.259Z,20.60
2023-01-10T14:20:28.931Z,21.30
2023-01-10T14:23:06.385Z,20.20
2023-01-10T14:25:36.145Z,19.30
2023-01-10T14:28:04.446Z,19.10
2023-01-10T14:30:34.034Z,19.30
2023-01-10T14:33:07.025Z,18.30
2023-01-10T14:35:39.309Z,18.90
2023-01-10T14:38:09.543Z,18.60
2023-01-10T14:40:43.325Z,18.60
2023-01-10T14:43:14.896Z,18.90
2023-01-10T14:45:46.647Z,18.90
2023-01-10T14:48:37.138Z,19.30
2023-01-10T14:51:21.288Z,18.40
2023-01-10T14:53:49.556Z,19.30
2023-01-10T14:56:25.133Z,20.40
2023-01-10T14:58:52.345Z,20.40
2023-01-10T15:01:25.694Z,20.10
2023-01-10T15:03:53.387Z,18.90
2023-01-10T15:06:20.511Z,20.10
2023-01-10T15:08:47.659Z,19.80
2023-01-10T15:11:16.674Z,18.90
2023-01-10T15:13:51.780Z,19.20
2023-01-10T15:16:23.380Z,19.90
2023-01-10T15:18:52.272Z,20.20
2023-01-10T15:21:22.381Z,20.00
2023-01-10T15:23:50.544Z,19.80
2023-01-10T15:26:20.793Z,20.10
2023-01-10T15:29:02.385Z,19.40
2023-01-10T15:31:31.911Z,20.50
2023-01-10T15:33:59.377Z,21.10
2023-01-10T15:36:29.591Z,21.50
2023-01-10T15:38:56.939Z,22.80
2023-01-10T15:41:25.366Z,22.50
2023-01-10T15:43:54.626Z,22.90
2023-01-10T15:46:26.695Z,23.70
2023-01-10T15:49:02.983Z,24.10
2023-01-10T15:51:34.981Z,23.20
2023-01-10T15:54:07.344Z,25.10
2023-01-10T15:56:38.135Z,24.30
2023-01-10T15:59:06.405Z,24.00
2023-01-10T16:01:35.226Z,25.00
2023-01-10T16:04:05.596Z,24.30
2023-01-10T16:06:35.924Z,24.20
2023-01-10T16:09:06.006Z,24.30
2023-01-10T16:11:58.242Z,25.50
2023-01-10T16:14:25.367Z,23.50
2023-01-10T16:16:52.994Z,24.40
2023-01-10T16:19:20.016Z,23.40
2023-01-10T16:21:51.500Z,24.80
2023-01-10T16:24:22.251Z,24.40
2023-01-10T16:26:50.636Z,25.30
2023-01-10T16:29:17.766Z,24.70
2023-01-10T16:31:44.831Z,24.30
2023-01-10T16:34:12.169Z,25.50
2023-01-10T16:36:41.429Z,25.80
2023-01-10T16:39:14.454Z,25.40
2023-01-10T16:41:59.458Z,27.20
2023-01-10T16:44:26.561Z,24.80
2023-01-10T16:46:54.436Z,25.70
2023-01-10T16:49:21.729Z,27.00
2023-01-10T16:51:49.721Z,26.60
2023-01-10T16:54:19.746Z,28.20
2023-01-10T16:56:47.312Z,26.10
2023-01-10T16:59:14.456Z,27.10
2023-01-10T17:01:46.559Z,27.20
2023-01-10T17:04:19.282Z,27.60
2023-01-10T17:06:46.968Z,26.40
2023-01-10T17:09:22.031Z,27.80
2023-01-10T17:11:54.480Z,28.10
2023-01-10T17:14:21.648Z,26.60
2023-01-10T17:16:49.078Z,27.50
2023-01-10T17:19:17.539Z,26.40
2023-01-10T17:21:44.573Z,27.10
2023-01-10T17:24:12.993Z,26.90
2023-01-10T17:26:40.053Z,27.30
2023-01-10T17:29:07.062Z,25.80
2023-01-10T17:31:36.566Z,27.60
2023-01-10T17:34:04.010Z,27.20
2023-01-10T17:36:32.689Z,27.50
2023-01-10T17:39:00.534Z,26.70
2023-01-10T17:41:28.093Z,28.40
2023-01-10T17:43:55.116Z,28.50
2023-01-10T17:46:22.498Z,27.70
2023-01-10T17:48:49.567Z,28.50
2023-01-10T17:51:17.633Z,27.70
2023-01-10T17:53:44.779Z,29.90
2023-01-10T17:56:12.209Z,26.90
2023-01-10T17:58:39.255Z,26.90
2023-01-10T18:01:08.032Z,25.90
2023-01-10T18:03:35.636Z,29.00
2023-01-10T18:06:02.916Z,28.00
2023-01-10T18:08:31.459Z,25.90
2023-01-10T18:11:02.640Z,27.60
2023-01-10T18:13:31.648Z,28.00
2023-01-10T18:15:58.838Z,27.60
2023-01-10T18:18:27.897Z,28.10
2023-01-10T18:20:58.189Z,28.00
2023-01-10T18:23:27.069Z,28.20
2023-01-10T18:26:00.222Z,28.20
2023-01-10T18:28:40.501Z,27.80
2023-01-10T18:31:10.250Z,26.30
2023-01-10T18:33:39.613Z,26.80
2023-01-10T18:36:08.519Z,26.70
2023-01-10T18:38:36.671Z,27.20
2023-01-10T18:41:04.730Z,27.30
2023-01-10T18:43:32.945Z,27.90
2023-01-10T18:46:04.471Z,28.50
2023-01-10T18:48:32.038Z,27.30
2023-01-10T18:51:01.257Z,28.10
2023-01-10T18:53:28.811Z,27.60
2023-01-10T18:56:00.738Z,28.50
2023-01-10T18:58:29.196Z,28.90
2023-01-10T19:00:57.980Z,28.20
2023-01-10T19:03:25.607Z,26.90
2023-01-10T19:05:52.904Z,28.40
2023-01-10T19:08:19.967Z,27.80
2023-01-10T19:11:11.981Z,29.10
2023-01-10T19:13:34.914Z,28.10
2023-01-10T19:16:13.563Z,28.20
2023-01-10T19:18:40.655Z,28.90
2023-01-10T19:21:13.389Z,28.70
2023-01-10T19:23:40.845Z,28.50
2023-01-10T19:26:08.532Z,28.10
2023-01-10T19:28:35.989Z,28.60
2023-01-10T19:31:05.154Z,29.40
2023-01-10T19:33:34.598Z,28.00
2023-01-10T19:36:05.187Z,28.20
2023-01-10T19:38:32.339Z,28.70
2023-01-10T19:40:59.526Z,30.00
2023-01-10T19:43:26.618Z,29.30
2023-01-10T19:45:54.465Z,29.70
2023-01-10T19:48:21.572Z,30.30
2023-01-10T19:50:48.634Z,31.00
2023-01-10T19:53:16.050Z,31.60
2023-01-10T19:55:43.336Z,31.40
2023-01-10T19:58:10.424Z,33.30
2023-01-10T20:00:37.565Z,32.60
2023-01-10T20:03:05.290Z,34.30
2023-01-10T20:05:34.642Z,33.70
2023-01-10T20:08:02.144Z,35.80
2023-01-10T20:10:29.193Z,34.30
2023-01-10T20:12:56.293Z,33.70
2023-01-10T20:15:23.376Z,35.10
2023-01-10T20:17:50.495Z,33.40
2023-01-10T20:20:20.808Z,35.10
2023-01-10T20:22:48.428Z,35.30
2023-01-10T20:25:15.552Z,37.30
2023-01-10T20:27:42.885Z,37.70
2023-01-10T20:30:14.108Z,37.80
2023-01-10T20:32:41.171Z,37.60
2023-01-10T20:35:11.628Z,40.80
2023-01-10T20:37:39.043Z,42.70
2023-01-10T20:40:06.782Z,41.60
2023-01-10T20:42:33.750Z,42.30
2023-01-10T20:45:00.858Z,44.90
2023-01-10T20:47:28.714Z,45.00
2023-01-10T20:49:55.694Z,45.60
2023-01-10T20:52:22.866Z,47.90
2023-01-10T20:54:49.906Z,45.90
2023-01-10T20:57:17.103Z,47.50
2023-01-10T20:59:44.286Z,48.50
2023-01-10T21:02:13.155Z,48.00
2023-01-10T21:04:40.976Z,46.90
2023-01-10T21:07:08.279Z,43.00
2023-01-10T21:09:35.743Z,42.10
2023-01-10T21:12:17.619Z,41.60
2023-01-10T21:14:49.561Z,37.10
2023-01-10T21:17:16.800Z,38.40
2023-01-10T21:19:43.821Z,38.40
2023-01-10T21:22:11.281Z,37.90
2023-01-10T21:24:38.453Z,37.50
2023-01-10T21:27:05.631Z,37.20
2023-01-10T21:29:32.776Z,35.90
2023-01-10T21:31:59.953Z,36.10
2023-01-10T21:34:27.070Z,36.10
2023-01-10T21:36:54.283Z,35.40
2023-01-10T21:39:21.528Z,36.50
2023-01-10T21:42:06.197Z,35.00
2023-01-10T21:44:33.260Z,34.90
2023-01-10T21:47:00.930Z,32.50
2023-01-10T21:49:28.159Z,35.00
2023-01-10T21:51:55.927Z,33.40
2023-01-10T21:54:23.208Z,34.00
2023-01-10T21:56:52.073Z,34.70
2023-01-10T21:59:19.267Z,45.40
2023-01-10T22:01:47.288Z,37.00
2023-01-10T22:04:16.368Z,35.80
2023-01-10T22:06:44.360Z,38.10
2023-01-10T22:09:11.390Z,35.40
2023-01-10T22:11:38.754Z,31.40
2023-01-10T22:14:05.915Z,33.50
2023-01-10T22:16:33.180Z,35.30
2023-01-10T22:19:00.436Z,32.70
2023-01-10T22:21:27.521Z,32.40
2023-01-10T22:23:54.662Z,34.40
2023-01-10T22:26:21.704Z,32.20
2023-01-10T22:28:49.015Z,32.20
2023-01-10T22:31:17.339Z,32.30
2023-01-10T22:33:44.342Z,30.10
2023-01-10T22:36:16.693Z,31.10
2023-01-10T22:38:44.671Z,31.80
2023-01-10T22:41:13.607Z,31.50
2023-01-10T22:43:40.659Z,31.20
2023-01-10T22:46:08.885Z,31.60
2023-01-10T22:48:37.184Z,29.00
2023-01-10T22:51:05.492Z,28.10
2023-01-10T22:53:32.826Z,27.40
2023-01-10T22:56:02.037Z,25.40
2023-01-10T22:58:29.452Z,26.60
2023-01-10T23:00:56.424Z,24.70
2023-01-10T23:03:23.696Z,24.90
2023-01-10T23:05:54.717Z,24.40
2023-01-10T23:08:21.612Z,24.60
2023-01-10T23:10:50.156Z,24.20
2023-01-10T23:13:17.557Z,24.20
2023-01-10T23:15:44.935Z,24.70
2023-01-10T23:18:11.865Z,24.20
2023-01-10T23:20:38.790Z,25.10
2023-01-10T23:23:05.714Z,24.70
2023-01-10T23:25:32.625Z,27.50
2023-01-10T23:27:59.698Z,26.70
2023-01-10T23:30:26.802Z,28.00
2023-01-10T23:32:53.804Z,27.60
2023-01-10T23:35:20.677Z,28.00
2023-01-10T23:37:47.643Z,27.50
2023-01-10T23:40:15.873Z,28.00
2023-01-10T23:42:42.879Z,27.00
2023-01-10T23:45:12.495Z,28.10
2023-01-10T23:47:40.134Z,31.50
2023-01-10T23:50:08.614Z,31.00
2023-01-10T23:52:35.515Z,31.30
2023-01-10T23:55:02.474Z,31.00
2023-01-10T23:57:29.417Z,32.30
2023-01-10T23:59:59.864Z,32.60
